sensor_id;sensor_type;location;lat;lon;timestamp;P1;durP1;ratioP1;P2;durP2;ratioP2
53939;SDS011;39850;43.324;21.916;2024-02-16T00:06:05;50.0;;;40.0;;
53939;SDS011;39850;43.324;21.916;2024-02-16T00:10:43;50.0;;;40.0;;
53939;SDS011;39850;43.324;21.916;2024-02-16T00:15:19;50.0;;;40.0;;
53939;SDS011;39850;43.324;21.916;2024-02-16T00:19:56;50.0;;;40.0;;
53939;SDS011;39850;43.324;21.916;2024-02-16T00:24:32;50.0;;;40.0;;
53939;SDS011;39850;43.324;21.916;2024-02-16T00:29:09;50.0;;;40.0;;
53939;SDS011;39850;43.324;21.916;2024-02-16T00:33:45;51.0;;;41.0;;
53939;SDS011;39850;43.324;21.916;2024-02-16T00:38:21;51.0;;;41.0;;
53939;SDS011;39850;43.324;21.916;2024-02-16T01:24:24;47.0;;;37.0;;
53939;SDS011;39850;43.324;21.916;2024-02-16T01:29:01;47.0;;;37.0;;
53939;SDS011;39850;43.324;21.916;2024-02-16T01:33:38;50.0;;;38.0;;
53939;SDS011;39850;43.324;21.916;2024-02-16T01:38:15;50.0;;;38.0;;
53939;SDS011;39850;43.324;21.916;2024-02-16T01:42:52;47.0;;;37.0;;
53939;SDS011;39850;43.324;21.916;2024-02-16T01:47:30;47.0;;;37.0;;
53939;SDS011;39850;43.324;21.916;2024-02-16T01:52:08;47.0;;;37.0;;
53939;SDS011;39850;43.324;21.916;2024-02-16T01:56:47;49.0;;;38.0;;
53939;SDS011;39850;43.324;21.916;2024-02-16T02:01:23;49.0;;;38.0;;
53939;SDS011;39850;43.324;21.916;2024-02-16T02:06:00;46.0;;;36.0;;
53939;SDS011;39850;43.324;21.916;2024-02-16T02:10:36;46.0;;;36.0;;
53939;SDS011;39850;43.324;21.916;2024-02-16T02:47:26;42.0;;;34.0;;
53939;SDS011;39850;43.324;21.916;2024-02-16T02:52:03;42.0;;;34.0;;
53939;SDS011;39850;43.324;21.916;2024-02-16T02:56:39;46.0;;;36.0;;
53939;SDS011;39850;43.324;21.916;2024-02-16T03:01:16;46.0;;;36.0;;
53939;SDS011;39850;43.324;21.916;2024-02-16T03:05:52;45.0;;;35.0;;
53939;SDS011;39850;43.324;21.916;2024-02-16T03:10:28;45.0;;;35.0;;
53939;SDS011;39850;43.324;21.916;2024-02-16T03:15:08;47.0;;;36.0;;
53939;SDS011;39850;43.324;21.916;2024-02-16T03:19:45;47.0;;;36.0;;
53939;SDS011;39850;43.324;21.916;2024-02-16T03:24:21;45.0;;;35.0;;
53939;SDS011;39850;43.324;21.916;2024-02-16T03:28:58;45.0;;;35.0;;
53939;SDS011;39850;43.324;21.916;2024-02-16T04:05:49;32.0;;;27.0;;
53939;SDS011;39850;43.324;21.916;2024-02-16T04:10:25;32.0;;;27.0;;
53939;SDS011;39850;43.324;21.916;2024-02-16T04:15:05;30.0;;;26.0;;
53939;SDS011;39850;43.324;21.916;2024-02-16T04:19:43;30.0;;;26.0;;
53939;SDS011;39850;43.324;21.916;2024-02-16T04:24:19;29.0;;;26.0;;
53939;SDS011;39850;43.324;21.916;2024-02-16T04:28:55;29.0;;;26.0;;
53939;SDS011;39850;43.324;21.916;2024-02-16T04:33:32;29.0;;;26.0;;
53939;SDS011;39850;43.324;21.916;2024-02-16T04:38:08;29.0;;;26.0;;
53939;SDS011;39850;43.324;21.916;2024-02-16T04:42:45;29.0;;;26.0;;
53939;SDS011;39850;43.324;21.916;2024-02-16T04:47:21;29.0;;;25.0;;
53939;SDS011;39850;43.324;21.916;2024-02-16T04:51:58;29.0;;;25.0;;
53939;SDS011;39850;43.324;21.916;2024-02-16T05:24:13;26.0;;;23.0;;
53939;SDS011;39850;43.324;21.916;2024-02-16T05:28:50;26.0;;;23.0;;
53939;SDS011;39850;43.324;21.916;2024-02-16T05:33:26;26.0;;;23.0;;
53939;SDS011;39850;43.324;21.916;2024-02-16T05:38:03;26.0;;;22.0;;
53939;SDS011;39850;43.324;21.916;2024-02-16T05:42:39;26.0;;;22.0;;
53939;SDS011;39850;43.324;21.916;2024-02-16T05:47:16;26.0;;;22.0;;
53939;SDS011;39850;43.324;21.916;2024-02-16T05:51:52;26.0;;;22.0;;
53939;SDS011;39850;43.324;21.916;2024-02-16T05:56:28;24.0;;;22.0;;
53939;SDS011;39850;43.324;21.916;2024-02-16T06:01:04;24.0;;;22.0;;
53939;SDS011;39850;43.324;21.916;2024-02-16T06:05:40;23.0;;;21.0;;
53939;SDS011;39850;43.324;21.916;2024-02-16T06:10:17;23.0;;;21.0;;
53939;SDS011;39850;43.324;21.916;2024-02-16T06:47:08;31.0;;;26.0;;
53939;SDS011;39850;43.324;21.916;2024-02-16T06:51:44;31.0;;;26.0;;
53939;SDS011;39850;43.324;21.916;2024-02-16T06:56:22;39.0;;;32.0;;
53939;SDS011;39850;43.324;21.916;2024-02-16T07:00:59;39.0;;;32.0;;
53939;SDS011;39850;43.324;21.916;2024-02-16T07:05:35;47.0;;;37.0;;
53939;SDS011;39850;43.324;21.916;2024-02-16T07:10:12;47.0;;;37.0;;
53939;SDS011;39850;43.324;21.916;2024-02-16T07:14:48;52.0;;;40.0;;
53939;SDS011;39850;43.324;21.916;2024-02-16T07:19:24;52.0;;;40.0;;
53939;SDS011;39850;43.324;21.916;2024-02-16T07:24:02;58.0;;;44.0;;
53939;SDS011;39850;43.324;21.916;2024-02-16T07:28:39;58.0;;;44.0;;
53939;SDS011;39850;43.324;21.916;2024-02-16T07:33:15;58.0;;;44.0;;
53939;SDS011;39850;43.324;21.916;2024-02-16T08:05:29;36.0;;;30.0;;
53939;SDS011;39850;43.324;21.916;2024-02-16T08:10:07;36.0;;;30.0;;
53939;SDS011;39850;43.324;21.916;2024-02-16T08:14:45;34.0;;;30.0;;
53939;SDS011;39850;43.324;21.916;2024-02-16T08:19:21;34.0;;;30.0;;
53939;SDS011;39850;43.324;21.916;2024-02-16T08:23:58;34.0;;;30.0;;
53939;SDS011;39850;43.324;21.916;2024-02-16T08:28:34;36.0;;;30.0;;
53939;SDS011;39850;43.324;21.916;2024-02-16T08:33:11;36.0;;;30.0;;
53939;SDS011;39850;43.324;21.916;2024-02-16T08:37:48;34.0;;;30.0;;
53939;SDS011;39850;43.324;21.916;2024-02-16T08:42:24;34.0;;;30.0;;
53939;SDS011;39850;43.324;21.916;2024-02-16T08:47:00;36.0;;;30.0;;
53939;SDS011;39850;43.324;21.916;2024-02-16T08:51:37;36.0;;;30.0;;
53939;SDS011;39850;43.324;21.916;2024-02-16T09:28:29;39.0;;;34.0;;
53939;SDS011;39850;43.324;21.916;2024-02-16T09:33:07;39.0;;;34.0;;
53939;SDS011;39850;43.324;21.916;2024-02-16T09:37:43;40.0;;;34.0;;
53939;SDS011;39850;43.324;21.916;2024-02-16T09:42:23;40.0;;;34.0;;
53939;SDS011;39850;43.324;21.916;2024-02-16T09:47:04;39.0;;;34.0;;
53939;SDS011;39850;43.324;21.916;2024-02-16T09:51:45;39.0;;;34.0;;
53939;SDS011;39850;43.324;21.916;2024-02-16T09:56:23;38.0;;;34.0;;
53939;SDS011;39850;43.324;21.916;2024-02-16T10:01:00;38.0;;;34.0;;
53939;SDS011;39850;43.324;21.916;2024-02-16T10:05:36;37.0;;;33.0;;
53939;SDS011;39850;43.324;21.916;2024-02-16T10:10:22;37.0;;;33.0;;
53939;SDS011;39850;43.324;21.916;2024-02-16T10:47:28;22.0;;;21.0;;
53939;SDS011;39850;43.324;21.916;2024-02-16T10:52:09;22.0;;;21.0;;
53939;SDS011;39850;43.324;21.916;2024-02-16T10:56:48;22.0;;;20.0;;
53939;SDS011;39850;43.324;21.916;2024-02-16T11:01:24;22.0;;;20.0;;
53939;SDS011;39850;43.324;21.916;2024-02-16T11:06:14;21.0;;;20.0;;
53939;SDS011;39850;43.324;21.916;2024-02-16T11:10:59;21.0;;;20.0;;
53939;SDS011;39850;43.324;21.916;2024-02-16T11:15:37;20.0;;;20.0;;
53939;SDS011;39850;43.324;21.916;2024-02-16T11:20:14;20.0;;;20.0;;
53939;SDS011;39850;43.324;21.916;2024-02-16T11:24:54;20.0;;;19.0;;
53939;SDS011;39850;43.324;21.916;2024-02-16T11:29:37;20.0;;;19.0;;
53939;SDS011;39850;43.324;21.916;2024-02-16T11:34:22;20.0;;;19.0;;
53939;SDS011;39850;43.324;21.916;2024-02-16T12:06:37;20.0;;;17.0;;
53939;SDS011;39850;43.324;21.916;2024-02-16T12:11:14;20.0;;;17.0;;
53939;SDS011;39850;43.324;21.916;2024-02-16T12:15:52;18.0;;;16.0;;
53939;SDS011;39850;43.324;21.916;2024-02-16T12:20:31;18.0;;;16.0;;
53939;SDS011;39850;43.324;21.916;2024-02-16T12:25:08;20.0;;;17.0;;
53939;SDS011;39850;43.324;21.916;2024-02-16T12:29:45;20.0;;;17.0;;
53939;SDS011;39850;43.324;21.916;2024-02-16T12:34:21;20.0;;;17.0;;
53939;SDS011;39850;43.324;21.916;2024-02-16T12:38:58;22.0;;;17.0;;
53939;SDS011;39850;43.324;21.916;2024-02-16T12:43:34;22.0;;;17.0;;
53939;SDS011;39850;43.324;21.916;2024-02-16T12:48:11;29.0;;;20.0;;
53939;SDS011;39850;43.324;21.916;2024-02-16T12:52:47;29.0;;;20.0;;
53939;SDS011;39850;43.324;21.916;2024-02-16T13:29:36;14.0;;;12.0;;
53939;SDS011;39850;43.324;21.916;2024-02-16T13:34:13;14.0;;;12.0;;
53939;SDS011;39850;43.324;21.916;2024-02-16T13:38:49;14.0;;;12.0;;
53939;SDS011;39850;43.324;21.916;2024-02-16T13:43:27;14.0;;;12.0;;
53939;SDS011;39850;43.324;21.916;2024-02-16T13:48:10;14.0;;;13.0;;
53939;SDS011;39850;43.324;21.916;2024-02-16T13:52:46;14.0;;;13.0;;
53939;SDS011;39850;43.324;21.916;2024-02-16T13:57:22;14.0;;;13.0;;
53939;SDS011;39850;43.324;21.916;2024-02-16T14:01:59;14.0;;;13.0;;
53939;SDS011;39850;43.324;21.916;2024-02-16T14:06:35;14.0;;;13.0;;
53939;SDS011;39850;43.324;21.916;2024-02-16T14:11:11;14.0;;;13.0;;
53939;SDS011;39850;43.324;21.916;2024-02-16T14:48:07;22.0;;;20.0;;
53939;SDS011;39850;43.324;21.916;2024-02-16T14:52:45;22.0;;;20.0;;
53939;SDS011;39850;43.324;21.916;2024-02-16T14:57:22;20.0;;;18.0;;
53939;SDS011;39850;43.324;21.916;2024-02-16T15:01:58;20.0;;;18.0;;
53939;SDS011;39850;43.324;21.916;2024-02-16T15:06:35;18.0;;;16.0;;
53939;SDS011;39850;43.324;21.916;2024-02-16T15:11:11;18.0;;;16.0;;
53939;SDS011;39850;43.324;21.916;2024-02-16T15:15:48;18.0;;;16.0;;
53939;SDS011;39850;43.324;21.916;2024-02-16T15:20:24;18.0;;;16.0;;
53939;SDS011;39850;43.324;21.916;2024-02-16T15:25:01;18.0;;;16.0;;
53939;SDS011;39850;43.324;21.916;2024-02-16T15:29:38;18.0;;;16.0;;
53939;SDS011;39850;43.324;21.916;2024-02-16T15:34:15;18.0;;;16.0;;
53939;SDS011;39850;43.324;21.916;2024-02-16T16:06:30;21.0;;;18.0;;
53939;SDS011;39850;43.324;21.916;2024-02-16T16:11:06;21.0;;;18.0;;
53939;SDS011;39850;43.324;21.916;2024-02-16T16:15:43;23.0;;;19.0;;
53939;SDS011;39850;43.324;21.916;2024-02-16T16:20:19;23.0;;;19.0;;
53939;SDS011;39850;43.324;21.916;2024-02-16T16:24:55;23.0;;;19.0;;
53939;SDS011;39850;43.324;21.916;2024-02-16T16:29:32;25.0;;;20.0;;
53939;SDS011;39850;43.324;21.916;2024-02-16T16:34:08;25.0;;;20.0;;
53939;SDS011;39850;43.324;21.916;2024-02-16T16:38:45;26.0;;;22.0;;
53939;SDS011;39850;43.324;21.916;2024-02-16T16:43:22;26.0;;;22.0;;
53939;SDS011;39850;43.324;21.916;2024-02-16T16:47:58;27.0;;;24.0;;
53939;SDS011;39850;43.324;21.916;2024-02-16T16:52:35;27.0;;;24.0;;
53939;SDS011;39850;43.324;21.916;2024-02-16T17:29:33;128.0;;;94.0;;
53939;SDS011;39850;43.324;21.916;2024-02-16T17:34:10;128.0;;;94.0;;
53939;SDS011;39850;43.324;21.916;2024-02-16T17:38:46;128.0;;;94.0;;
53939;SDS011;39850;43.324;21.916;2024-02-16T17:43:22;128.0;;;94.0;;
53939;SDS011;39850;43.324;21.916;2024-02-16T17:47:58;148.0;;;107.0;;
53939;SDS011;39850;43.324;21.916;2024-02-16T17:52:35;148.0;;;107.0;;
53939;SDS011;39850;43.324;21.916;2024-02-16T17:57:11;168.0;;;120.0;;
53939;SDS011;39850;43.324;21.916;2024-02-16T18:01:48;168.0;;;120.0;;
53939;SDS011;39850;43.324;21.916;2024-02-16T18:06:24;168.0;;;120.0;;
53939;SDS011;39850;43.324;21.916;2024-02-16T18:11:00;168.0;;;120.0;;
53939;SDS011;39850;43.324;21.916;2024-02-16T18:15:37;168.0;;;120.0;;
53939;SDS011;39850;43.324;21.916;2024-02-16T18:47:51;1045.0;;;756.0;;
53939;SDS011;39850;43.324;21.916;2024-02-16T18:52:27;1045.0;;;756.0;;
53939;SDS011;39850;43.324;21.916;2024-02-16T18:57:04;977.0;;;702.0;;
53939;SDS011;39850;43.324;21.916;2024-02-16T19:01:40;977.0;;;702.0;;
53939;SDS011;39850;43.324;21.916;2024-02-16T19:06:16;909.0;;;647.0;;
53939;SDS011;39850;43.324;21.916;2024-02-16T19:10:53;909.0;;;647.0;;
53939;SDS011;39850;43.324;21.916;2024-02-16T19:15:29;909.0;;;647.0;;
53939;SDS011;39850;43.324;21.916;2024-02-16T19:20:07;749.0;;;528.0;;
53939;SDS011;39850;43.324;21.916;2024-02-16T19:24:45;749.0;;;528.0;;
53939;SDS011;39850;43.324;21.916;2024-02-16T19:29:21;589.0;;;410.0;;
53939;SDS011;39850;43.324;21.916;2024-02-16T19:33:57;589.0;;;410.0;;
53939;SDS011;39850;43.324;21.916;2024-02-16T20:10:49;60.0;;;48.0;;
53939;SDS011;39850;43.324;21.916;2024-02-16T20:15:26;60.0;;;48.0;;
53939;SDS011;39850;43.324;21.916;2024-02-16T20:20:08;58.0;;;47.0;;
53939;SDS011;39850;43.324;21.916;2024-02-16T20:24:44;58.0;;;47.0;;
53939;SDS011;39850;43.324;21.916;2024-02-16T20:29:21;57.0;;;46.0;;
53939;SDS011;39850;43.324;21.916;2024-02-16T20:33:57;57.0;;;46.0;;
53939;SDS011;39850;43.324;21.916;2024-02-16T20:38:34;54.0;;;44.0;;
53939;SDS011;39850;43.324;21.916;2024-02-16T20:43:10;54.0;;;44.0;;
53939;SDS011;39850;43.324;21.916;2024-02-16T20:47:46;52.0;;;41.0;;
53939;SDS011;39850;43.324;21.916;2024-02-16T20:52:23;52.0;;;41.0;;
53939;SDS011;39850;43.324;21.916;2024-02-16T21:29:12;67.0;;;55.0;;
53939;SDS011;39850;43.324;21.916;2024-02-16T21:33:48;67.0;;;55.0;;
53939;SDS011;39850;43.324;21.916;2024-02-16T21:38:25;84.0;;;67.0;;
53939;SDS011;39850;43.324;21.916;2024-02-16T21:43:02;84.0;;;67.0;;
53939;SDS011;39850;43.324;21.916;2024-02-16T21:47:38;102.0;;;79.0;;
53939;SDS011;39850;43.324;21.916;2024-02-16T21:52:14;102.0;;;79.0;;
53939;SDS011;39850;43.324;21.916;2024-02-16T21:56:50;118.0;;;89.0;;
53939;SDS011;39850;43.324;21.916;2024-02-16T22:01:28;118.0;;;89.0;;
53939;SDS011;39850;43.324;21.916;2024-02-16T22:06:06;118.0;;;89.0;;
53939;SDS011;39850;43.324;21.916;2024-02-16T22:10:42;135.0;;;99.0;;
53939;SDS011;39850;43.324;21.916;2024-02-16T22:15:18;135.0;;;99.0;;
53939;SDS011;39850;43.324;21.916;2024-02-16T22:47:36;114.0;;;82.0;;
53939;SDS011;39850;43.324;21.916;2024-02-16T22:52:13;114.0;;;82.0;;
53939;SDS011;39850;43.324;21.916;2024-02-16T22:56:50;114.0;;;82.0;;
53939;SDS011;39850;43.324;21.916;2024-02-16T23:01:26;106.0;;;78.0;;
53939;SDS011;39850;43.324;21.916;2024-02-16T23:06:05;106.0;;;78.0;;
53939;SDS011;39850;43.324;21.916;2024-02-16T23:10:41;97.0;;;73.0;;
53939;SDS011;39850;43.324;21.916;2024-02-16T23:15:21;97.0;;;73.0;;
53939;SDS011;39850;43.324;21.916;2024-02-16T23:19:57;88.0;;;68.0;;
53939;SDS011;39850;43.324;21.916;2024-02-16T23:24:33;88.0;;;68.0;;
53939;SDS011;39850;43.324;21.916;2024-02-16T23:29:10;80.0;;;63.0;;
53939;SDS011;39850;43.324;21.916;2024-02-16T23:33:46;80.0;;;63.0;;
